עמוד ראשי
METAR-TAF:

METAR-TAF

שדות תעופה :

Antofagasta, צ'ילה

קו רוחב: 23-26S, קו אורך: 070-26W, גובה: 135מטר

תצפית מזג אוויר נוכחית

הדו"ח נערך לפני 56דקות, בשעה 10:00 UTC
רוח 10קשר מכיוון דרום/דרום-מערב
טמפרטורת 13 צלסיוס
לחות 82%
לחץ 1014 hPa
ראות 10 קילומטר או יותר
עננים בינוניים בגובה 1700רגל

METAR: SCFA 241000Z 20010KT 9999 BKN017 13/10 Q1014 NOSIG

זמן: 06:56 (10:56 UTC)

תחזית

הדו"ח נערך לפני 6 שעות ו 4דקות, בשעה 04:52 UTC
תחזית בתוקף מ 24 ב 06 UTC עד 25 ב 06 UTC
רוח 8קשר מכיוון דרום/דרום-מערב
ראות 10 קילומטר או יותר
מעונן בגובה 1400רגל
יעשה מ
24 ב 15 UTC עד 24 ב 17 UTC
רוח 16קשר מכיוון דרום/דרום-מערב
עננים פזורים בגובה 1600רגל
יעשה מ
25 ב 00 UTC עד 25 ב 02 UTC
מעונן בגובה 1200רגל
יעשה מ
25 ב 04 UTC עד 25 ב 06 UTC
רוח 6קשר מכיוון דרום/דרום-מערב

TAF: SCFA 240452Z 2406/2506 20008KT 9999 OVC014 TN13/2406Z TX15/2418Z BECMG 2415/2417 20016KT SCT016 BECMG 2500/2502 OVC012 BECMG 2504/2506 20006KT

תצפיות ותחזיות מזג אוויר לגבי יותר מ- 4,000 שדות תעופה ברחבי העולם. דוחות METAR ו- TAF.

התחנות הזמינות מסומנות בנקודות צהובות ואדומות על גבי המפה.

העבר את העכבר לנקודה הצבעונית על מנת לראות את שם התחנה.

לאחר מכן, לחץ כדי לראות את תוכן ואת תחזיות מזג האוויר.

כדי לשנות את המפה: לחץ על הכפתורים הירוקים עם הפלוס השחור כדי להתקרב; על הכפתור הירוק עם המקף כדי להתרחק; או בחיצים הירוקים למפות סמוכות.


METAR-TAF: